Country
Station

 

Weather  for  Mont Joli, Que.  -  Canada    Canada

  
-6 °C (21 °F)
    
 
 

Current METAR for Mont Joli, Que. is :

CYYY 161800Z 17008KT 4SM -SN OVC030 M06/M09 A2987 RMK SC8 SLP119

 

This is a report for Mont Joli, Que. - Canada.
 
The report was made one hour and 1 minutes ago, at 18:00 UTC .
The wind was blowing at a speed of 4.1 meters per second (9.2 miles per hour) from south (170°).
 
The temperature was -6 °C (21 °F), with a dew-point at -9 °C (16 °F).
The temperature felt like -11 °C (11 °F).
 
The atmospheric pressure was 1012 hPa (29.87 inHg).
The relative humidity was 79.2%.
 
The sky was overcast from a height of 914 meter (3000 feet)
 
The overall visibility was 6.4 kilometers (4.0 miles).
 
Currently light snow.

 
 
 
 

Country :   A   B   C   D   E   F   G   H   I   J   K   L   M   N   O   P   Q   R   S   T   U   V   W   Y   Z

 

Site Info  |  Disclaimer  |  Credits  |  Privacy
Contact us  |  Add to favorites
© 2013-2018 METARs - All rights reserved